createdAt,value
2022-11-29T00:02:03.088Z,95402.97
2022-11-29T00:04:31.398Z,95405.06
2022-11-29T00:06:59.606Z,95406.44
2022-11-29T00:09:28.028Z,95398.59
2022-11-29T00:12:15.662Z,95409.72
2022-11-29T00:14:44.327Z,95405.94
2022-11-29T00:17:12.738Z,95401.03
2022-11-29T00:19:40.959Z,95398.75
2022-11-29T00:22:09.285Z,95390.38
2022-11-29T00:24:37.686Z,95331.78
2022-11-29T00:27:07.347Z,95382.22
2022-11-29T00:29:35.947Z,95388.53
2022-11-29T00:32:04.309Z,95374.63
2022-11-29T00:34:32.610Z,95375.13
2022-11-29T00:37:00.841Z,95378.25
2022-11-29T00:39:29.159Z,95387.97
2022-11-29T00:41:57.499Z,95386.84
2022-11-29T00:44:27.147Z,95386.84
2022-11-29T00:46:55.460Z,95383.06
2022-11-29T00:49:23.641Z,95381.22
2022-11-29T00:51:51.827Z,95384.16
2022-11-29T00:54:20.155Z,95387.53
2022-11-29T00:56:48.333Z,95379.75
2022-11-29T00:59:16.590Z,95377.78
2022-11-29T01:01:46.370Z,95379.22
2022-11-29T01:04:14.640Z,95384.81
2022-11-29T01:06:43.014Z,95303.03
2022-11-29T01:09:11.308Z,95385.97
2022-11-29T01:11:39.728Z,95378.94
2022-11-29T01:14:07.906Z,95379.28
2022-11-29T01:16:36.461Z,95388.16
2022-11-29T01:19:07.427Z,95377.59
2022-11-29T01:21:35.657Z,95378.06
2022-11-29T01:24:04.012Z,95396.75
2022-11-29T01:26:32.880Z,95389.56
2022-11-29T01:29:01.483Z,95388.03
2022-11-29T01:31:31.884Z,95384.84
2022-11-29T01:34:02.129Z,95377.47
2022-11-29T01:36:31.904Z,95378.53
2022-11-29T01:39:00.449Z,95374.34
2022-11-29T01:41:30.906Z,95379.81
2022-11-29T01:44:02.983Z,95377.69
2022-11-29T01:46:32.676Z,95355.03
2022-11-29T01:49:06.767Z,95378.31
2022-11-29T01:51:38.963Z,95377.69
2022-11-29T01:54:08.826Z,95324.34
2022-11-29T01:56:39.095Z,95341.72
2022-11-29T01:59:12.683Z,95376.09
2022-11-29T02:01:41.045Z,95363.50
2022-11-29T02:04:09.684Z,95312.13
2022-11-29T02:06:40.947Z,95370.97
2022-11-29T02:09:20.830Z,95373.09
2022-11-29T02:12:15.400Z,95367.75
2022-11-29T02:15:14.820Z,95367.38
2022-11-29T02:17:58.289Z,95364.28
2022-11-29T02:21:12.454Z,95362.31
2022-11-29T02:24:16.099Z,95364.25
2022-11-29T02:27:13.566Z,95369.69
2022-11-29T02:30:32.246Z,95361.63
2022-11-29T02:33:30.108Z,95363.72
2022-11-29T02:36:24.948Z,95369.22
2022-11-29T02:39:15.598Z,95356.47
2022-11-29T02:41:59.620Z,95359.13
2022-11-29T02:44:48.482Z,95349.19
2022-11-29T02:47:27.332Z,95359.47
2022-11-29T02:50:19.743Z,95328.88
2022-11-29T02:53:01.583Z,95354.78
2022-11-29T02:55:35.210Z,95350.34
2022-11-29T02:58:12.702Z,95343.72
2022-11-29T03:00:48.367Z,95360.13
2022-11-29T03:03:23.097Z,95313.25
2022-11-29T03:05:58.331Z,95352.09
2022-11-29T03:08:35.312Z,95358.16
2022-11-29T03:11:14.227Z,95350.59
2022-11-29T03:13:52.835Z,95359.19
2022-11-29T03:16:31.241Z,95350.50
2022-11-29T03:19:07.260Z,95364.28
2022-11-29T03:21:43.165Z,95374.28
2022-11-29T03:24:17.265Z,95372.50
2022-11-29T03:26:50.699Z,95385.59
2022-11-29T03:29:28.335Z,95349.97
2022-11-29T03:32:03.196Z,95368.66
2022-11-29T03:34:55.702Z,95379.88
2022-11-29T03:37:31.303Z,95304.69
2022-11-29T03:40:06.221Z,95388.81
2022-11-29T03:42:39.979Z,95346.53
2022-11-29T03:45:15.875Z,95282.06
2022-11-29T03:47:52.831Z,95386.22
2022-11-29T03:50:25.089Z,95387.41
2022-11-29T03:52:57.312Z,95287.91
2022-11-29T03:55:34.436Z,95342.38
2022-11-29T03:58:14.631Z,95357.31
2022-11-29T04:01:03.547Z,95397.44
2022-11-29T04:03:59.194Z,95377.53
2022-11-29T04:06:48.187Z,95375.50
2022-11-29T04:09:36.293Z,95385.50
2022-11-29T04:12:37.188Z,95400.09
2022-11-29T04:15:53.694Z,95406.88
2022-11-29T04:19:00.281Z,95283.44
2022-11-29T04:21:58.476Z,95398.13
2022-11-29T04:25:02.171Z,95398.28
2022-11-29T04:27:42.150Z,95372.50
2022-11-29T04:30:22.178Z,95399.91
2022-11-29T04:33:28.917Z,95398.47
2022-11-29T04:36:27.177Z,95222.34
2022-11-29T04:39:13.246Z,95396.09
2022-11-29T04:41:59.422Z,95337.41
2022-11-29T04:44:56.821Z,95395.63
2022-11-29T04:47:52.406Z,95348.69
2022-11-29T04:50:49.036Z,95395.63
2022-11-29T04:53:40.180Z,95393.34
2022-11-29T04:56:17.541Z,95391.63
2022-11-29T04:58:54.770Z,95391.97
2022-11-29T05:01:32.752Z,95405.47
2022-11-29T05:04:08.410Z,95353.75
2022-11-29T05:06:44.704Z,95403.91
2022-11-29T05:09:24.590Z,95394.41
2022-11-29T05:12:02.939Z,95404.50
2022-11-29T05:14:49.887Z,95346.22
2022-11-29T05:17:32.728Z,95407.16
2022-11-29T05:20:24.463Z,95406.50
2022-11-29T05:23:13.193Z,95413.06
2022-11-29T05:25:46.646Z,95407.63
2022-11-29T05:28:21.808Z,95400.75
2022-11-29T05:31:20.825Z,95415.06
2022-11-29T05:34:12.061Z,95411.72
2022-11-29T05:36:50.374Z,95414.53
2022-11-29T05:39:32.538Z,95376.34
2022-11-29T05:42:27.368Z,95407.88
2022-11-29T05:45:00.649Z,95414.34
2022-11-29T05:47:37.240Z,95347.91
2022-11-29T05:50:15.353Z,95401.34
2022-11-29T05:52:52.266Z,95401.59
2022-11-29T05:55:30.794Z,95413.28
2022-11-29T05:58:03.692Z,95367.06
2022-11-29T06:00:42.274Z,95422.00
2022-11-29T06:03:20.618Z,95403.91
2022-11-29T06:05:56.834Z,95420.19
2022-11-29T06:08:36.553Z,95399.66
2022-11-29T06:11:12.281Z,95371.09
2022-11-29T06:13:56.849Z,95425.28
2022-11-29T06:16:39.107Z,95427.13
2022-11-29T06:19:41.173Z,95428.97
2022-11-29T06:22:31.809Z,95421.22
2022-11-29T06:25:18.814Z,95418.41
2022-11-29T06:28:07.071Z,95424.16
2022-11-29T06:30:51.098Z,95403.41
2022-11-29T06:33:23.934Z,95370.38
2022-11-29T06:36:01.567Z,95412.66
2022-11-29T06:38:32.164Z,95436.78
2022-11-29T06:41:02.414Z,95442.78
2022-11-29T06:43:31.909Z,95434.66
2022-11-29T06:46:07.144Z,95396.09
2022-11-29T06:48:41.495Z,95440.72
2022-11-29T06:51:18.629Z,95433.56
2022-11-29T06:53:55.635Z,95430.47
2022-11-29T06:56:31.570Z,95434.13
2022-11-29T06:59:09.296Z,95402.53
2022-11-29T07:01:46.238Z,95337.59
2022-11-29T07:04:35.063Z,95378.25
2022-11-29T07:07:03.771Z,95432.94
2022-11-29T07:09:35.978Z,95432.31
2022-11-29T07:12:04.919Z,95442.13
2022-11-29T07:14:33.760Z,95444.59
2022-11-29T07:17:10.178Z,95440.06
2022-11-29T07:19:52.651Z,95439.50
2022-11-29T07:22:36.673Z,95429.84
2022-11-29T07:25:32.018Z,95429.91
2022-11-29T07:28:14.690Z,95435.63
2022-11-29T07:30:51.720Z,95431.13
2022-11-29T07:33:27.897Z,95431.44
2022-11-29T07:36:02.723Z,95427.44
2022-11-29T07:38:51.510Z,95437.59
2022-11-29T07:41:28.293Z,95443.16
2022-11-29T07:44:06.627Z,95434.09
2022-11-29T07:46:34.861Z,95332.81
2022-11-29T07:49:03.139Z,95436.97
2022-11-29T07:51:33.009Z,95435.59
2022-11-29T07:54:01.582Z,95435.97
2022-11-29T07:56:31.327Z,95434.28
2022-11-29T07:58:59.585Z,95436.50
2022-11-29T08:01:27.884Z,95440.13
2022-11-29T08:03:56.145Z,95432.06
2022-11-29T08:06:27.922Z,95443.38
2022-11-29T08:08:58.910Z,95437.31
2022-11-29T08:11:29.049Z,95437.88
2022-11-29T08:13:59.277Z,95378.66
2022-11-29T08:16:27.632Z,95482.34
2022-11-29T08:18:55.912Z,95449.25
2022-11-29T08:21:24.157Z,95446.09
2022-11-29T08:23:52.571Z,95445.34
2022-11-29T08:26:25.468Z,95444.03
2022-11-29T08:28:57.079Z,95445.75
2022-11-29T08:31:26.777Z,95432.53
2022-11-29T08:33:55.000Z,95433.31
2022-11-29T08:36:23.187Z,95436.19
2022-11-29T08:38:57.178Z,95425.41
2022-11-29T08:41:30.027Z,95416.75
2022-11-29T08:43:58.337Z,95416.81
2022-11-29T08:46:48.077Z,95421.59
2022-11-29T08:49:16.338Z,95414.75
2022-11-29T08:51:44.679Z,95400.72
2022-11-29T08:54:12.541Z,95403.56
2022-11-29T08:59:28.957Z,95350.84
2022-11-29T09:01:58.674Z,95400.47
2022-11-29T09:04:26.959Z,95393.34
2022-11-29T09:06:55.432Z,95384.03
2022-11-29T09:09:23.617Z,95388.31
2022-11-29T09:11:51.754Z,95385.69
2022-11-29T09:14:22.335Z,95384.66
2022-11-29T09:16:50.627Z,95392.59
2022-11-29T09:19:20.447Z,95386.50
2022-11-29T09:21:48.758Z,95389.91
2022-11-29T09:24:17.025Z,95388.38
2022-11-29T09:26:48.375Z,95354.47
2022-11-29T09:29:17.789Z,95380.16
2022-11-29T09:31:46.274Z,95378.78
2022-11-29T09:34:15.205Z,95376.88
2022-11-29T09:36:45.300Z,95380.63
2022-11-29T09:39:13.583Z,95375.66
2022-11-29T09:42:09.863Z,95371.66
2022-11-29T09:44:48.746Z,95361.94
2022-11-29T09:47:28.551Z,95370.69
2022-11-29T09:50:18.126Z,95359.16
2022-11-29T09:52:55.423Z,95359.66
2022-11-29T09:55:47.839Z,95351.22
2022-11-29T09:58:21.805Z,95360.59
2022-11-29T10:00:53.438Z,95353.91
2022-11-29T10:03:26.527Z,95321.94
2022-11-29T10:06:00.043Z,95353.69
2022-11-29T10:08:37.744Z,95237.63
2022-11-29T10:11:19.741Z,95348.06
2022-11-29T10:13:53.299Z,95344.47
2022-11-29T10:16:29.593Z,95343.25
2022-11-29T10:19:05.016Z,95341.53
2022-11-29T10:21:37.280Z,95337.63
2022-11-29T10:24:14.897Z,95218.13
2022-11-29T10:26:43.705Z,95338.53
2022-11-29T10:29:15.520Z,95325.81
2022-11-29T10:31:49.485Z,95309.38
2022-11-29T10:34:19.976Z,95329.81
2022-11-29T10:36:50.421Z,95324.75
2022-11-29T10:39:24.473Z,95261.66
2022-11-29T10:42:01.131Z,95318.94
2022-11-29T10:44:30.041Z,95308.91
2022-11-29T10:46:59.595Z,95312.31
2022-11-29T10:49:31.972Z,95302.53
2022-11-29T10:52:00.242Z,95307.28
2022-11-29T10:54:38.363Z,95308.59
2022-11-29T10:57:14.556Z,95300.66
2022-11-29T10:59:44.755Z,95280.72
2022-11-29T11:02:20.239Z,95300.94
2022-11-29T11:04:50.242Z,95290.09
2022-11-29T11:07:25.543Z,95296.47
2022-11-29T11:09:57.979Z,95231.03
2022-11-29T11:12:30.595Z,95291.00
2022-11-29T11:15:27.714Z,95292.31
2022-11-29T11:18:00.982Z,95293.94
2022-11-29T11:20:33.043Z,95297.00
2022-11-29T11:23:03.800Z,95287.19
2022-11-29T11:25:36.056Z,95282.19
2022-11-29T11:28:18.248Z,95282.38
2022-11-29T11:30:52.251Z,95288.69
2022-11-29T11:33:25.272Z,95288.03
2022-11-29T11:36:09.434Z,95285.63
2022-11-29T11:38:39.241Z,95286.84
2022-11-29T11:41:44.847Z,95287.66
2022-11-29T11:44:46.378Z,95301.13
2022-11-29T11:47:18.105Z,95288.16
2022-11-29T11:49:51.788Z,95279.19
2022-11-29T11:52:23.372Z,95278.13
2022-11-29T11:54:54.851Z,95279.97
2022-11-29T11:57:26.391Z,95270.31
2022-11-29T12:00:02.042Z,95183.53
2022-11-29T12:02:39.636Z,95269.75
2022-11-29T12:05:14.641Z,95249.78
2022-11-29T12:10:37.773Z,95237.25
2022-11-29T12:13:08.458Z,95265.94
2022-11-29T12:15:39.940Z,95252.84
2022-11-29T12:18:14.185Z,95258.28
2022-11-29T12:20:47.898Z,95266.88
2022-11-29T12:23:30.301Z,95187.69
2022-11-29T12:26:04.249Z,95254.06
2022-11-29T12:28:36.210Z,95257.50
2022-11-29T12:31:21.679Z,95270.66
2022-11-29T12:33:57.848Z,95274.38
2022-11-29T12:36:37.475Z,95271.66
2022-11-29T12:39:20.561Z,95276.63
2022-11-29T12:41:57.354Z,95277.03
2022-11-29T12:44:44.656Z,95260.88
2022-11-29T12:47:39.431Z,95271.19
2022-11-29T12:50:33.522Z,95274.63
2022-11-29T12:53:15.694Z,95264.41
2022-11-29T12:55:52.523Z,95214.41
2022-11-29T12:58:28.510Z,95273.03
2022-11-29T13:01:08.938Z,95273.91
2022-11-29T13:03:45.446Z,95266.41
2022-11-29T13:06:21.931Z,95260.69
2022-11-29T13:09:04.284Z,95249.44
2022-11-29T13:11:37.483Z,95262.72
2022-11-29T13:14:41.535Z,95276.41
2022-11-29T13:17:06.039Z,95251.34
2022-11-29T13:19:43.957Z,95270.16
2022-11-29T13:22:18.508Z,95265.25
2022-11-29T13:24:52.121Z,95269.16
2022-11-29T13:27:26.435Z,95268.13
2022-11-29T13:29:56.192Z,95267.91
2022-11-29T13:32:38.731Z,95272.72
2022-11-29T13:35:19.291Z,95275.78
2022-11-29T13:37:55.542Z,95280.56
2022-11-29T13:40:37.301Z,95266.66
2022-11-29T13:43:18.094Z,95274.50
2022-11-29T13:45:53.498Z,95271.75
2022-11-29T13:48:37.235Z,95263.59
2022-11-29T13:51:39.044Z,95272.31
2022-11-29T13:54:08.603Z,95277.59
2022-11-29T13:56:46.609Z,95262.25
2022-11-29T13:59:21.670Z,95266.53
2022-11-29T14:01:53.839Z,95269.72
2022-11-29T14:04:37.111Z,95266.56
2022-11-29T14:07:12.449Z,95270.25
2022-11-29T14:09:50.667Z,95273.19
2022-11-29T14:12:37.251Z,95269.50
2022-11-29T14:15:25.682Z,95271.59
2022-11-29T14:17:56.618Z,95275.59
2022-11-29T14:20:59.638Z,95279.09
2022-11-29T14:23:40.542Z,95275.28
2022-11-29T14:26:32.748Z,95279.19
2022-11-29T14:29:01.674Z,95278.75
2022-11-29T14:31:54.651Z,95209.25
2022-11-29T14:34:46.399Z,95285.41
2022-11-29T14:37:48.849Z,95265.25
2022-11-29T14:40:28.660Z,95287.47
2022-11-29T14:42:57.238Z,95286.66
2022-11-29T14:45:29.404Z,95288.25
2022-11-29T14:47:58.622Z,95298.13
2022-11-29T14:50:36.298Z,95290.19
2022-11-29T14:53:07.866Z,95299.66
2022-11-29T14:55:38.660Z,95293.09
2022-11-29T14:58:18.015Z,95261.63
2022-11-29T15:01:10.636Z,95296.50
2022-11-29T15:03:52.554Z,95291.22
2022-11-29T15:06:28.976Z,95295.22
2022-11-29T15:09:07.234Z,95290.13
2022-11-29T15:11:47.964Z,95284.31
2022-11-29T15:14:24.434Z,95294.09
2022-11-29T15:17:04.054Z,95298.34
2022-11-29T15:19:59.224Z,95298.13
2022-11-29T15:22:29.933Z,95299.44
2022-11-29T15:25:03.801Z,95305.03
2022-11-29T15:27:35.088Z,95301.16
2022-11-29T15:30:20.042Z,95303.31
2022-11-29T15:32:48.615Z,95281.88
2022-11-29T15:35:19.709Z,95299.56
2022-11-29T15:37:49.857Z,95303.25
2022-11-29T15:40:21.062Z,95313.66
2022-11-29T15:42:53.446Z,95312.31
2022-11-29T15:45:29.820Z,95309.16
2022-11-29T15:48:13.673Z,95307.81
2022-11-29T15:50:46.214Z,95319.19
2022-11-29T15:53:19.767Z,95309.38
2022-11-29T15:55:51.897Z,95313.56
2022-11-29T15:58:21.172Z,95318.38
2022-11-29T16:00:50.756Z,95310.47
2022-11-29T16:03:25.440Z,95278.13
2022-11-29T16:06:01.470Z,95320.50
2022-11-29T16:08:34.604Z,95321.59
2022-11-29T16:11:06.734Z,95310.47
2022-11-29T16:13:37.971Z,95324.50
2022-11-29T16:16:15.567Z,95320.03
2022-11-29T16:18:45.524Z,95252.75
2022-11-29T16:21:25.640Z,95325.84
2022-11-29T16:23:54.742Z,95327.44
2022-11-29T16:26:28.453Z,95318.38
2022-11-29T16:28:58.156Z,95314.69
2022-11-29T16:31:33.264Z,95325.72
2022-11-29T16:34:09.387Z,95315.13
2022-11-29T16:36:38.272Z,95320.66
2022-11-29T16:39:16.457Z,95317.50
2022-11-29T16:42:02.620Z,95318.28
2022-11-29T16:45:01.592Z,95323.13
2022-11-29T16:47:32.248Z,95320.34
2022-11-29T16:50:15.972Z,95317.72
2022-11-29T16:52:44.551Z,95319.94
2022-11-29T16:55:12.978Z,95325.47
2022-11-29T16:57:42.806Z,95329.25
2022-11-29T17:00:13.648Z,95320.53
2022-11-29T17:02:41.897Z,95339.59
2022-11-29T17:05:10.461Z,95340.66
2022-11-29T17:07:41.358Z,95341.19
2022-11-29T17:10:11.988Z,95339.06
2022-11-29T17:12:43.478Z,95348.66
2022-11-29T17:15:17.822Z,95345.19
2022-11-29T17:17:46.172Z,95353.13
2022-11-29T17:20:15.418Z,95357.63
2022-11-29T17:22:43.796Z,95362.66
2022-11-29T17:25:12.369Z,95365.81
2022-11-29T17:27:40.540Z,95361.88
2022-11-29T17:30:11.444Z,95358.97
2022-11-29T17:32:41.317Z,95348.34
2022-11-29T17:35:10.287Z,95366.38
2022-11-29T17:37:38.693Z,95346.53
2022-11-29T17:40:08.388Z,95357.66
2022-11-29T17:42:36.630Z,95366.50
2022-11-29T17:45:05.952Z,95245.34
2022-11-29T17:47:34.775Z,95373.19
2022-11-29T17:50:04.639Z,95367.41
2022-11-29T17:52:32.912Z,95376.03
2022-11-29T17:55:01.533Z,95387.88
2022-11-29T17:57:29.769Z,95371.53
2022-11-29T17:59:58.183Z,95382.16
2022-11-29T18:02:26.902Z,95375.09
2022-11-29T18:04:55.340Z,95381.28
2022-11-29T18:07:25.111Z,95392.63
2022-11-29T18:09:53.401Z,95392.75
2022-11-29T18:12:22.655Z,95391.28
2022-11-29T18:14:51.463Z,95395.09
2022-11-29T18:17:19.620Z,95389.31
2022-11-29T18:19:48.386Z,95393.59
2022-11-29T18:22:16.738Z,95394.94
2022-11-29T18:24:46.430Z,95394.66
2022-11-29T18:27:14.861Z,95341.94
2022-11-29T18:29:43.521Z,95402.09
2022-11-29T18:32:12.317Z,95403.66
2022-11-29T18:34:40.694Z,95382.47
2022-11-29T18:37:15.293Z,95402.09
2022-11-29T18:39:48.260Z,95408.69
2022-11-29T18:42:16.699Z,95409.22
2022-11-29T18:44:46.298Z,95414.25
2022-11-29T18:47:14.787Z,95410.56
2022-11-29T18:49:43.108Z,95421.16
2022-11-29T18:52:11.486Z,95413.41
2022-11-29T18:54:39.666Z,95421.09
2022-11-29T18:57:09.548Z,95420.59
2022-11-29T18:59:37.778Z,95419.00
2022-11-29T19:02:06.353Z,95414.81
2022-11-29T19:04:34.661Z,95408.38
2022-11-29T19:07:02.933Z,95418.47
2022-11-29T19:09:31.204Z,95414.69
2022-11-29T19:11:59.531Z,95415.28
2022-11-29T19:14:30.559Z,95413.47
2022-11-29T19:16:58.827Z,95408.97
2022-11-29T19:19:27.097Z,95397.31
2022-11-29T19:21:55.406Z,95409.78
2022-11-29T19:24:24.262Z,95395.13
2022-11-29T19:26:55.621Z,95418.84
2022-11-29T19:29:27.593Z,95419.63
2022-11-29T19:31:57.455Z,95416.50
2022-11-29T19:34:26.259Z,95420.44
2022-11-29T19:36:54.818Z,95413.00
2022-11-29T19:39:23.240Z,95395.06
2022-11-29T19:41:51.900Z,95427.22
2022-11-29T19:44:21.332Z,95418.47
2022-11-29T19:46:51.265Z,95416.00
2022-11-29T19:49:21.525Z,95423.97
2022-11-29T19:51:50.110Z,95415.63
2022-11-29T19:54:18.504Z,95387.84
2022-11-29T19:56:46.832Z,95415.78
2022-11-29T19:59:15.330Z,95404.41
2022-11-29T20:01:43.828Z,95401.53
2022-11-29T20:04:16.764Z,95402.31
2022-11-29T20:06:46.442Z,95390.41
2022-11-29T20:09:15.556Z,95396.28
2022-11-29T20:11:44.915Z,95387.00
2022-11-29T20:14:14.962Z,95354.41
2022-11-29T20:16:43.981Z,95220.97
2022-11-29T20:19:14.619Z,95278.16
2022-11-29T20:21:45.697Z,95385.69
2022-11-29T20:24:15.813Z,95393.81
2022-11-29T20:26:46.659Z,95390.06
2022-11-29T20:29:15.426Z,95385.59
2022-11-29T20:31:50.005Z,95388.53
2022-11-29T20:34:19.153Z,95363.16
2022-11-29T20:37:07.523Z,95391.97
2022-11-29T20:39:47.262Z,95387.22
2022-11-29T20:42:54.250Z,95389.19
2022-11-29T20:45:24.278Z,95396.03
2022-11-29T20:47:58.246Z,95383.38
2022-11-29T20:50:31.586Z,95387.13
2022-11-29T20:53:19.531Z,95384.31
2022-11-29T20:55:49.672Z,95374.00
2022-11-29T20:58:21.262Z,95391.28
2022-11-29T21:00:52.624Z,95257.00
2022-11-29T21:03:24.378Z,95385.53
2022-11-29T21:05:53.290Z,95309.00
2022-11-29T21:08:23.099Z,95393.59
2022-11-29T21:10:53.559Z,95389.63
2022-11-29T21:13:24.073Z,95396.41
2022-11-29T21:15:53.191Z,95388.81
2022-11-29T21:18:24.067Z,95322.81
2022-11-29T21:21:07.747Z,95385.34
2022-11-29T21:23:52.114Z,95381.13
2022-11-29T21:26:24.956Z,95381.41
2022-11-29T21:29:01.227Z,95360.16
2022-11-29T21:31:33.401Z,95383.28
2022-11-29T21:34:02.836Z,95380.38
2022-11-29T21:36:39.729Z,95378.78
2022-11-29T21:39:09.484Z,95375.88
2022-11-29T21:41:39.403Z,95378.00
2022-11-29T21:44:16.819Z,95371.88
2022-11-29T21:46:48.875Z,95366.34
2022-11-29T21:49:17.197Z,95368.47
2022-11-29T21:51:46.197Z,95378.78
2022-11-29T21:54:18.991Z,95383.28
2022-11-29T21:56:48.980Z,95370.84
2022-11-29T21:59:17.298Z,95344.66
2022-11-29T22:01:45.750Z,95350.47
2022-11-29T22:04:13.999Z,95345.69
2022-11-29T22:06:42.299Z,95358.13
2022-11-29T22:09:11.586Z,95352.84
2022-11-29T22:11:39.858Z,95339.06
2022-11-29T22:14:18.334Z,95344.38
2022-11-29T22:16:48.778Z,95351.25
2022-11-29T22:19:18.417Z,95349.38
2022-11-29T22:21:48.420Z,95338.78
2022-11-29T22:24:18.974Z,95339.84
2022-11-29T22:26:47.799Z,95340.34
2022-11-29T22:29:17.824Z,95331.09
2022-11-29T22:31:47.737Z,95347.00
2022-11-29T22:34:16.201Z,95343.03
2022-11-29T22:36:44.554Z,95342.75
2022-11-29T22:39:13.390Z,95341.44
2022-11-29T22:41:44.286Z,95345.97
2022-11-29T22:44:18.222Z,95345.63
2022-11-29T22:46:46.521Z,95337.97
2022-11-29T22:49:14.771Z,95323.69
2022-11-29T22:51:43.118Z,95275.53
2022-11-29T22:54:15.527Z,95326.13
2022-11-29T22:56:45.666Z,95323.72
2022-11-29T22:59:14.315Z,95250.13
2022-11-29T23:01:44.286Z,95316.28
2022-11-29T23:04:13.858Z,95270.75
2022-11-29T23:06:43.727Z,95327.72
2022-11-29T23:09:16.409Z,95325.59
2022-11-29T23:11:46.322Z,95333.00
2022-11-29T23:14:14.977Z,95326.38
2022-11-29T23:16:44.746Z,95330.88
2022-11-29T23:19:13.314Z,95328.50
2022-11-29T23:21:44.787Z,95285.59
2022-11-29T23:24:13.658Z,95318.72
2022-11-29T23:26:44.866Z,95327.44
2022-11-29T23:29:15.366Z,95318.94
2022-11-29T23:31:45.221Z,95325.31
2022-11-29T23:34:13.658Z,95330.59
2022-11-29T23:36:42.199Z,95326.34
2022-11-29T23:39:10.517Z,95335.94
2022-11-29T23:41:38.780Z,95281.09
2022-11-29T23:44:08.774Z,95328.00
2022-11-29T23:46:37.482Z,95330.06
2022-11-29T23:49:07.137Z,95323.16
2022-11-29T23:51:35.377Z,95280.22
2022-11-29T23:54:03.750Z,95340.50
2022-11-29T23:56:35.569Z,95344.59
2022-11-29T23:59:04.109Z,95330.56
